Time;durP1;ratioP1;P1;durP2;ratioP2;P2;SDS_P1;SDS_P2;PMS_P1;PMS_P2;Temp;Humidity;BMP_temperature;BMP_pressure;BME280_temperature;BME280_humidity;BME280_pressure;Samples;Min_cycle;Max_cycle;Signal;HPM_P1;HPM_P2
2021/12/15 00:01:31;;;;;;;31.13;18.40;;;;;;;;;;5097764;28;20492;-53
2021/12/15 00:03:57;;;;;;;29.77;18.23;;;;;;;;;;5101869;28;21713;-53
2021/12/15 00:06:23;;;;;;;28.20;16.02;;;;;;;;;;5096795;28;20031;-53
2021/12/15 00:08:52;;;;;;;23.55;15.05;;;;;;;;;;5095196;28;20028;-52
2021/12/15 00:11:18;;;;;;;22.60;14.95;;;;;;;;;;5093699;28;20039;-50
2021/12/15 00:13:45;;;;;;;23.80;12.27;;;;;;;;;;5098801;28;20024;-54
2021/12/15 00:16:12;;;;;;;19.92;11.27;;;;;;;;;;5093889;28;20052;-48
2021/12/15 00:18:44;;;;;;;48.67;22.55;;;;;;;;;;5099362;28;20020;-52
2021/12/15 00:21:12;;;;;;;41.80;22.95;;;;;;;;;;5091298;28;20032;-48
2021/12/15 00:23:41;;;;;;;43.70;21.15;;;;;;;;;;5094867;28;20032;-48
2021/12/15 00:26:07;;;;;;;34.92;19.40;;;;;;;;;;5098071;27;20416;-52
2021/12/15 00:28:33;;;;;;;30.08;17.02;;;;;;;;;;5100219;28;20027;-48
2021/12/15 00:31:00;;;;;;;28.35;16.60;;;;;;;;;;5095225;28;20024;-53
2021/12/15 00:33:26;;;;;;;28.52;16.98;;;;;;;;;;5104269;28;20031;-54
2021/12/15 00:35:51;;;;;;;23.25;15.27;;;;;;;;;;5100354;27;20376;-51
2021/12/15 00:38:17;;;;;;;31.25;16.33;;;;;;;;;;5103919;28;20027;-53
2021/12/15 00:40:43;;;;;;;24.10;14.23;;;;;;;;;;5087647;28;20047;-51
2021/12/15 00:43:09;;;;;;;27.17;15.75;;;;;;;;;;5080109;28;20909;-53
2021/12/15 00:45:35;;;;;;;25.10;14.65;;;;;;;;;;5084974;28;20035;-53
2021/12/15 00:48:02;;;;;;;23.83;14.35;;;;;;;;;;5106933;27;20028;-52
2021/12/15 00:50:32;;;;;;;25.25;14.55;;;;;;;;;;5100662;28;20131;-54
2021/12/15 00:52:58;;;;;;;24.25;15.40;;;;;;;;;;5099610;28;20063;-54
2021/12/15 00:55:26;;;;;;;23.10;14.48;;;;;;;;;;5097555;27;20571;-50
2021/12/15 00:57:51;;;;;;;25.48;13.43;;;;;;;;;;5099884;28;20098;-53
2021/12/15 01:00:21;;;;;;;23.05;13.02;;;;;;;;;;5096320;28;20107;-50
2021/12/15 01:02:48;;;;;;;21.80;13.40;;;;;;;;;;5098768;27;20415;-51
2021/12/15 01:05:15;;;;;;;22.77;13.70;;;;;;;;;;5099867;28;20028;-52
2021/12/15 01:07:42;;;;;;;26.65;14.20;;;;;;;;;;5101119;27;20472;-52
2021/12/15 01:10:09;;;;;;;27.13;13.27;;;;;;;;;;5101945;28;20038;-51
2021/12/15 01:14:31;;;;;;;20.70;12.25;;;;;;;;;;5099738;27;20055;-51
2021/12/15 01:21:13;;;;;;;20.98;12.55;;;;;;;;;;5094294;27;20031;-52
2021/12/15 01:23:39;;;;;;;19.77;11.27;;;;;;;;;;5098500;28;20035;-52
2021/12/15 01:26:10;;;;;;;21.25;11.45;;;;;;;;;;5096783;28;20048;-54
2021/12/15 01:28:36;;;;;;;21.05;11.43;;;;;;;;;;5102830;27;20035;-52
2021/12/15 01:31:05;;;;;;;22.25;11.63;;;;;;;;;;5097789;28;20380;-49
2021/12/15 01:33:32;;;;;;;20.08;11.20;;;;;;;;;;5104520;27;20032;-48
2021/12/15 01:36:03;;;;;;;20.65;10.27;;;;;;;;;;5100616;28;20039;-53
2021/12/15 01:38:31;;;;;;;22.90;11.60;;;;;;;;;;5097700;28;20578;-51
2021/12/15 01:40:58;;;;;;;22.15;11.50;;;;;;;;;;5102832;28;20033;-51
2021/12/15 01:49:00;;;;;;;23.05;11.85;;;;;;;;;;5099123;28;20552;-50
2021/12/15 01:51:27;;;;;;;20.95;12.40;;;;;;;;;;5097972;27;20031;-55
2021/12/15 01:53:53;;;;;;;19.13;12.32;;;;;;;;;;5099200;28;20031;-53
2021/12/15 01:56:19;;;;;;;26.42;13.15;;;;;;;;;;5102141;27;20047;-51
2021/12/15 01:58:45;;;;;;;34.78;14.88;;;;;;;;;;5098819;28;20123;-51
2021/12/15 02:01:11;;;;;;;28.13;13.82;;;;;;;;;;5100269;27;20041;-52
2021/12/15 02:03:38;;;;;;;26.20;13.95;;;;;;;;;;5102706;28;20047;-53
2021/12/15 02:06:06;;;;;;;30.60;13.38;;;;;;;;;;5103786;28;20161;-54
2021/12/15 02:08:31;;;;;;;29.13;13.68;;;;;;;;;;5102083;28;20393;-53
2021/12/15 02:10:58;;;;;;;22.90;12.57;;;;;;;;;;5097699;27;20031;-53
2021/12/15 02:13:24;;;;;;;23.23;13.05;;;;;;;;;;5097042;28;20472;-52
2021/12/15 02:15:57;;;;;;;20.90;11.75;;;;;;;;;;5101623;28;20029;-52
2021/12/15 02:18:27;;;;;;;18.88;10.65;;;;;;;;;;5102110;28;20030;-54
2021/12/15 02:21:00;;;;;;;19.88;11.00;;;;;;;;;;5103514;27;20081;-55
2021/12/15 02:23:35;;;;;;;18.98;10.77;;;;;;;;;;5105777;27;20406;-52
2021/12/15 02:26:03;;;;;;;24.95;13.45;;;;;;;;;;5101052;28;20078;-54
2021/12/15 02:28:29;;;;;;;29.80;16.48;;;;;;;;;;5102711;28;20038;-51
2021/12/15 02:31:12;;;;;;;36.67;18.50;;;;;;;;;;5102984;28;20465;-53
2021/12/15 02:39:05;;;;;;;27.55;15.63;;;;;;;;;;5098993;28;20027;-51
2021/12/15 02:41:31;;;;;;;24.25;13.88;;;;;;;;;;5086447;27;20051;-54
2021/12/15 02:44:02;;;;;;;26.48;13.38;;;;;;;;;;5103383;27;20110;-46
2021/12/15 02:46:30;;;;;;;26.05;13.02;;;;;;;;;;5103451;27;20508;-49
2021/12/15 02:48:56;;;;;;;21.33;12.68;;;;;;;;;;5096904;28;20015;-51
2021/12/15 02:51:22;;;;;;;22.25;12.52;;;;;;;;;;5095826;27;20034;-47
2021/12/15 02:53:49;;;;;;;21.55;12.70;;;;;;;;;;5093082;28;20032;-48
2021/12/15 02:56:15;;;;;;;22.35;12.35;;;;;;;;;;5098966;27;20035;-47
2021/12/15 02:58:57;;;;;;;20.08;12.63;;;;;;;;;;5101205;27;20464;-50
2021/12/15 03:01:41;;;;;;;21.53;12.43;;;;;;;;;;5102212;27;20035;-48
2021/12/15 03:06:45;;;;;;;23.35;13.40;;;;;;;;;;5100740;27;20039;-49
2021/12/15 03:17:08;;;;;;;19.45;11.50;;;;;;;;;;5096971;27;20392;-47
2021/12/15 03:19:35;;;;;;;21.85;12.15;;;;;;;;;;5101469;28;20490;-46
2021/12/15 03:22:01;;;;;;;17.92;10.38;;;;;;;;;;5104097;28;20034;-50
2021/12/15 03:24:27;;;;;;;19.10;10.48;;;;;;;;;;5097447;28;20069;-47
2021/12/15 03:27:06;;;;;;;18.45;10.23;;;;;;;;;;5098920;27;20054;-46
2021/12/15 03:35:19;;;;;;;16.73;9.00;;;;;;;;;;5093372;28;20063;-47
2021/12/15 03:37:48;;;;;;;;;;;;;;;;;;5097549;28;20024;-48
2021/12/15 03:40:24;;;;;;;15.43;9.27;;;;;;;;;;5098285;28;19920;-50
2021/12/15 03:42:57;;;;;;;15.98;9.23;;;;;;;;;;5094303;28;20482;-50
2021/12/15 03:45:32;;;;;;;15.00;8.77;;;;;;;;;;5097181;28;20043;-48
2021/12/15 03:48:01;;;;;;;19.88;9.45;;;;;;;;;;5097327;28;20024;-48
2021/12/15 03:50:27;;;;;;;14.50;10.30;;;;;;;;;;5101785;28;20061;-51
2021/12/15 03:52:53;;;;;;;17.30;10.40;;;;;;;;;;5101280;28;20098;-47
2021/12/15 03:55:23;;;;;;;17.92;9.88;;;;;;;;;;5093344;28;20564;-47
2021/12/15 03:57:49;;;;;;;13.95;9.45;;;;;;;;;;5102167;28;20023;-48
2021/12/15 04:00:16;;;;;;;19.70;10.32;;;;;;;;;;5095954;28;20059;-47
2021/12/15 04:02:44;;;;;;;14.60;8.55;;;;;;;;;;5096032;28;20442;-46
2021/12/15 04:05:12;;;;;;;13.35;8.18;;;;;;;;;;5108266;27;20031;-54
2021/12/15 04:07:38;;;;;;;14.93;8.50;;;;;;;;;;5104887;27;20035;-52
2021/12/15 04:10:08;;;;;;;17.58;9.60;;;;;;;;;;5099864;27;20032;-51
2021/12/15 04:12:34;;;;;;;26.60;11.63;;;;;;;;;;5102803;28;20068;-47
2021/12/15 04:15:19;;;;;;;13.73;8.98;;;;;;;;;;5105479;27;20467;-52
2021/12/15 04:17:48;;;;;;;13.93;8.48;;;;;;;;;;5104240;27;20040;-46
2021/12/15 04:20:18;;;;;;;14.23;8.40;;;;;;;;;;5107747;28;20051;-47
2021/12/15 04:22:45;;;;;;;12.38;8.02;;;;;;;;;;5105222;28;20476;-52
2021/12/15 04:25:18;;;;;;;16.15;8.13;;;;;;;;;;5084530;28;20520;-52
2021/12/15 04:28:06;;;;;;;17.67;8.20;;;;;;;;;;5099616;28;20028;-48
2021/12/15 04:30:38;;;;;;;13.68;8.60;;;;;;;;;;5104961;27;20468;-52
2021/12/15 04:33:16;;;;;;;13.57;8.35;;;;;;;;;;5097028;28;20145;-49
2021/12/15 04:35:43;;;;;;;15.55;8.80;;;;;;;;;;5099281;27;20040;-48
2021/12/15 04:38:10;;;;;;;10.20;7.57;;;;;;;;;;5108792;27;20093;-50
2021/12/15 04:40:36;;;;;;;12.40;8.40;;;;;;;;;;5104782;28;20091;-49
2021/12/15 04:43:02;;;;;;;19.35;9.70;;;;;;;;;;5103090;28;20461;-48
2021/12/15 04:45:30;;;;;;;23.98;12.60;;;;;;;;;;5105632;27;20110;-46
2021/12/15 04:47:58;;;;;;;19.67;12.30;;;;;;;;;;5101374;27;20027;-47
2021/12/15 04:50:29;;;;;;;20.92;12.98;;;;;;;;;;5095501;28;20032;-50
2021/12/15 04:52:59;;;;;;;22.05;12.25;;;;;;;;;;5100761;27;20031;-46
2021/12/15 04:55:27;;;;;;;19.33;13.10;;;;;;;;;;5102532;28;20032;-47
2021/12/15 04:57:53;;;;;;;17.48;11.70;;;;;;;;;;5101595;28;20023;-47
2021/12/15 05:00:26;;;;;;;13.55;10.35;;;;;;;;;;5099851;28;20372;-52
2021/12/15 05:02:52;;;;;;;14.63;10.10;;;;;;;;;;5098374;28;20515;-47
2021/12/15 05:05:20;;;;;;;13.02;9.02;;;;;;;;;;5099742;28;20130;-52
2021/12/15 05:07:47;;;;;;;10.05;7.68;;;;;;;;;;5113808;27;20036;-50
2021/12/15 05:10:13;;;;;;;11.27;7.45;;;;;;;;;;5098710;27;20028;-53
2021/12/15 05:12:39;;;;;;;9.15;7.15;;;;;;;;;;5099349;27;20101;-49
2021/12/15 05:15:07;;;;;;;8.98;6.95;;;;;;;;;;5107961;27;20046;-50
2021/12/15 05:17:33;;;;;;;9.25;6.68;;;;;;;;;;5097494;28;20032;-48
2021/12/15 05:20:00;;;;;;;8.05;6.30;;;;;;;;;;5097113;28;20110;-46
2021/12/15 05:22:27;;;;;;;14.30;6.85;;;;;;;;;;5105603;27;20020;-51
2021/12/15 05:24:52;;;;;;;8.65;6.25;;;;;;;;;;5102375;27;20584;-49
2021/12/15 05:27:18;;;;;;;8.73;6.60;;;;;;;;;;5103050;27;20450;-51
2021/12/15 05:29:46;;;;;;;9.30;6.28;;;;;;;;;;5091336;28;20040;-50
2021/12/15 05:32:16;;;;;;;8.27;6.82;;;;;;;;;;5098241;27;20538;-48
2021/12/15 05:34:42;;;;;;;9.07;6.60;;;;;;;;;;5101106;28;20020;-51
2021/12/15 05:37:08;;;;;;;15.13;6.40;;;;;;;;;;5103643;28;20035;-50
2021/12/15 05:39:34;;;;;;;10.13;6.13;;;;;;;;;;5096184;28;20055;-49
2021/12/15 05:42:00;;;;;;;8.48;5.82;;;;;;;;;;5105063;27;20034;-49
2021/12/15 05:44:27;;;;;;;11.38;6.20;;;;;;;;;;5099813;28;20036;-49
2021/12/15 05:46:54;;;;;;;10.23;6.75;;;;;;;;;;5098331;28;20027;-50
2021/12/15 05:49:20;;;;;;;14.85;7.50;;;;;;;;;;5104637;27;20023;-52
2021/12/15 05:51:47;;;;;;;13.82;7.65;;;;;;;;;;5103981;28;20107;-52
2021/12/15 05:54:13;;;;;;;12.35;7.43;;;;;;;;;;5104642;27;20024;-50
2021/12/15 05:56:40;;;;;;;12.90;7.93;;;;;;;;;;5102721;28;20042;-54
2021/12/15 05:59:06;;;;;;;11.70;7.03;;;;;;;;;;5101214;27;20460;-50
2021/12/15 06:01:32;;;;;;;10.93;7.55;;;;;;;;;;5106428;27;20038;-48
2021/12/15 06:04:00;;;;;;;8.88;6.40;;;;;;;;;;5102145;28;20031;-50
2021/12/15 06:06:28;;;;;;;13.52;6.25;;;;;;;;;;5098504;28;20032;-49
2021/12/15 06:08:54;;;;;;;13.50;6.40;;;;;;;;;;5098023;27;20054;-50
2021/12/15 06:11:19;;;;;;;11.80;5.35;;;;;;;;;;5097559;28;20024;-49
2021/12/15 06:13:48;;;;;;;6.60;5.22;;;;;;;;;;5096979;28;20039;-47
2021/12/15 06:16:18;;;;;;;20.52;10.00;;;;;;;;;;5099660;27;20097;-50
2021/12/15 06:18:47;;;;;;;23.50;12.05;;;;;;;;;;5099968;27;20039;-51
2021/12/15 06:21:13;;;;;;;27.77;14.18;;;;;;;;;;5105879;28;20031;-47
2021/12/15 06:23:39;;;;;;;41.38;19.67;;;;;;;;;;5100988;28;20081;-48
2021/12/15 06:26:06;;;;;;;53.67;22.90;;;;;;;;;;5099830;27;20123;-47
2021/12/15 06:28:33;;;;;;;42.78;20.10;;;;;;;;;;5098449;28;20112;-48
2021/12/15 06:31:00;;;;;;;40.28;20.20;;;;;;;;;;5104070;27;20034;-49
2021/12/15 06:33:28;;;;;;;37.78;18.08;;;;;;;;;;5076191;28;20406;-47
2021/12/15 06:35:57;;;;;;;43.53;22.45;;;;;;;;;;5098480;28;20119;-50
2021/12/15 06:38:32;;;;;;;43.30;21.00;;;;;;;;;;5101525;27;20093;-51
2021/12/15 06:40:58;;;;;;;33.10;17.73;;;;;;;;;;5103888;28;20066;-54
2021/12/15 06:43:25;;;;;;;26.90;14.82;;;;;;;;;;5100094;27;20062;-48
2021/12/15 06:59:17;;;;;;;7.10;5.65;;;;;;;;;;5093276;28;20059;-52
2021/12/15 07:01:42;;;;;;;10.32;5.90;;;;;;;;;;5093545;28;20035;-50
2021/12/15 07:04:08;;;;;;;15.27;6.30;;;;;;;;;;5098795;28;20023;-53
2021/12/15 07:06:34;;;;;;;8.85;6.18;;;;;;;;;;5098547;28;20047;-49
2021/12/15 07:09:00;;;;;;;10.30;5.90;;;;;;;;;;5097489;27;20030;-46
2021/12/15 07:11:26;;;;;;;7.93;5.57;;;;;;;;;;5098855;28;20024;-51
2021/12/15 07:13:52;;;;;;;7.75;5.55;;;;;;;;;;5100161;28;20043;-52
2021/12/15 07:16:19;;;;;;;16.65;6.00;;;;;;;;;;5091200;28;20062;-51
2021/12/15 07:19:06;;;;;;;9.98;5.65;;;;;;;;;;5097438;27;20027;-53
2021/12/15 07:21:37;;;;;;;7.70;5.55;;;;;;;;;;5075563;28;20069;-50
2021/12/15 07:24:06;;;;;;;7.32;5.38;;;;;;;;;;5100554;28;20451;-46
2021/12/15 07:26:32;;;;;;;8.73;5.22;;;;;;;;;;5092109;28;20028;-51
2021/12/15 07:28:58;;;;;;;5.82;5.22;;;;;;;;;;5102982;28;20020;-48
2021/12/15 07:31:24;;;;;;;7.68;5.20;;;;;;;;;;5092779;28;20035;-51
2021/12/15 07:33:50;;;;;;;8.75;5.22;;;;;;;;;;5098677;28;20028;-52
2021/12/15 07:36:16;;;;;;;9.05;5.43;;;;;;;;;;5095954;28;20506;-47
2021/12/15 07:38:43;;;;;;;9.45;4.75;;;;;;;;;;5099228;28;20526;-50
2021/12/15 07:41:41;;;;;;;8.65;4.68;;;;;;;;;;5103129;28;20027;-52
2021/12/15 07:44:05;;;;;;;10.95;5.32;;;;;;;;;;5092308;28;20031;-46
2021/12/15 07:46:31;;;;;;;10.25;5.32;;;;;;;;;;5100319;28;20063;-50
2021/12/15 07:48:57;;;;;;;9.82;5.80;;;;;;;;;;5080949;28;20397;-52
2021/12/15 07:51:23;;;;;;;11.20;5.63;;;;;;;;;;5095556;28;20020;-54
2021/12/15 07:53:49;;;;;;;8.15;5.63;;;;;;;;;;5096541;28;20032;-53
2021/12/15 07:56:15;;;;;;;14.30;7.10;;;;;;;;;;5092553;28;20064;-50
2021/12/15 07:58:42;;;;;;;14.90;9.25;;;;;;;;;;5100946;28;20100;-52
2021/12/15 08:01:09;;;;;;;17.35;11.73;;;;;;;;;;5094033;28;20028;-55
2021/12/15 08:03:37;;;;;;;14.65;10.00;;;;;;;;;;5091416;28;20032;-53
2021/12/15 08:06:04;;;;;;;26.05;12.70;;;;;;;;;;5096973;28;20084;-53
2021/12/15 08:08:30;;;;;;;21.00;11.95;;;;;;;;;;5082553;28;20039;-53
2021/12/15 08:10:57;;;;;;;18.10;12.35;;;;;;;;;;5096673;28;20032;-52
2021/12/15 08:13:33;;;;;;;18.08;12.90;;;;;;;;;;5093870;28;20568;-49
2021/12/15 08:15:59;;;;;;;24.20;13.82;;;;;;;;;;5095659;28;20024;-53
2021/12/15 08:18:27;;;;;;;24.92;14.27;;;;;;;;;;5098803;28;20039;-51
2021/12/15 08:20:53;;;;;;;31.42;16.67;;;;;;;;;;5096457;28;20457;-51
2021/12/15 08:23:19;;;;;;;21.73;12.73;;;;;;;;;;5096253;28;20114;-55
2021/12/15 08:25:45;;;;;;;31.67;13.00;;;;;;;;;;5099300;28;20043;-54
2021/12/15 08:28:12;;;;;;;23.45;13.70;;;;;;;;;;5104267;28;20184;-53
2021/12/15 08:30:41;;;;;;;29.38;13.45;;;;;;;;;;5096085;28;20626;-52
2021/12/15 08:33:11;;;;;;;20.67;13.25;;;;;;;;;;5098371;28;20028;-54
2021/12/15 08:35:41;;;;;;;22.92;12.27;;;;;;;;;;5102265;28;20489;-52
2021/12/15 08:38:09;;;;;;;24.88;13.32;;;;;;;;;;5093396;28;20032;-47
2021/12/15 08:40:36;;;;;;;22.95;13.65;;;;;;;;;;5108078;28;20043;-50
2021/12/15 08:43:03;;;;;;;37.90;20.40;;;;;;;;;;5096676;28;20070;-48
2021/12/15 08:45:29;;;;;;;38.58;18.92;;;;;;;;;;5093054;28;20055;-52
2021/12/15 08:47:58;;;;;;;40.55;20.67;;;;;;;;;;5101170;27;20043;-54
2021/12/15 08:50:29;;;;;;;31.38;15.38;;;;;;;;;;5101589;27;20065;-51
2021/12/15 08:52:55;;;;;;;30.77;16.98;;;;;;;;;;5101998;28;20035;-50
2021/12/15 08:55:22;;;;;;;31.17;16.05;;;;;;;;;;5099921;28;20032;-51
2021/12/15 08:57:52;;;;;;;24.10;14.57;;;;;;;;;;5100116;28;20028;-55
2021/12/15 09:00:19;;;;;;;23.77;14.63;;;;;;;;;;5097266;27;20372;-50
2021/12/15 09:02:46;;;;;;;28.35;15.63;;;;;;;;;;5099217;28;20043;-53
2021/12/15 09:05:12;;;;;;;29.08;15.35;;;;;;;;;;5096189;28;20032;-49
2021/12/15 09:07:38;;;;;;;29.83;16.17;;;;;;;;;;5097626;28;20063;-54
2021/12/15 09:10:08;;;;;;;25.63;14.93;;;;;;;;;;5098272;28;20027;-54
2021/12/15 09:12:35;;;;;;;31.40;16.90;;;;;;;;;;5098777;27;20032;-52
2021/12/15 09:15:01;;;;;;;32.63;17.88;;;;;;;;;;5098390;28;20040;-54
2021/12/15 09:17:28;;;;;;;31.15;16.88;;;;;;;;;;5096898;28;20054;-54
2021/12/15 09:19:54;;;;;;;25.92;15.82;;;;;;;;;;5097639;28;20027;-50
2021/12/15 09:22:19;;;;;;;30.85;17.42;;;;;;;;;;5097869;28;20089;-52
2021/12/15 09:24:45;;;;;;;35.80;19.45;;;;;;;;;;5101436;28;20055;-49
2021/12/15 09:27:10;;;;;;;41.50;19.65;;;;;;;;;;5106972;27;20070;-53
2021/12/15 09:29:36;;;;;;;40.58;20.08;;;;;;;;;;5101729;27;20058;-53
2021/12/15 09:32:02;;;;;;;49.88;22.25;;;;;;;;;;5103269;27;20036;-54
2021/12/15 09:34:30;;;;;;;52.58;22.80;;;;;;;;;;5100129;28;20036;-55
2021/12/15 09:36:57;;;;;;;44.80;22.88;;;;;;;;;;5098907;28;20054;-54
2021/12/15 09:39:25;;;;;;;50.13;22.63;;;;;;;;;;5095517;27;20138;-53
2021/12/15 09:41:51;;;;;;;51.45;23.75;;;;;;;;;;5099310;27;20036;-53
2021/12/15 09:44:22;;;;;;;37.47;22.33;;;;;;;;;;5097389;28;20113;-53
2021/12/15 10:03:47;;;;;;;46.60;26.65;;;;;;;;;;5024480;28;20029;-54
2021/12/15 10:06:19;;;;;;;50.22;24.58;;;;;;;;;;5025382;28;20056;-55
2021/12/15 10:19:53;;;;;;;41.38;23.58;;;;;;;;;;4987369;28;20065;-49
2021/12/15 10:25:03;;;;;;;40.42;25.13;;;;;;;;;;4988712;28;20755;-50
2021/12/15 10:27:35;;;;;;;50.60;25.10;;;;;;;;;;4987859;28;20519;-49
2021/12/15 10:30:27;;;;;;;42.00;24.50;;;;;;;;;;4986497;28;20022;-52
2021/12/15 10:33:00;;;;;;;52.13;24.80;;;;;;;;;;5014807;28;20030;-52
2021/12/15 10:35:33;;;;;;;40.15;24.65;;;;;;;;;;5022338;28;20476;-54
2021/12/15 10:38:18;;;;;;;42.30;25.33;;;;;;;;;;5021802;28;20490;-49
2021/12/15 10:40:49;;;;;;;39.15;24.25;;;;;;;;;;5022223;28;20046;-53
2021/12/15 10:43:16;;;;;;;41.03;25.73;;;;;;;;;;5018517;28;20064;-52
2021/12/15 10:45:46;;;;;;;33.72;24.77;;;;;;;;;;5019553;28;20383;-50
2021/12/15 10:48:24;;;;;;;42.95;25.67;;;;;;;;;;5018113;28;20516;-53
2021/12/15 10:50:52;;;;;;;36.22;23.20;;;;;;;;;;5021795;28;20080;-50
2021/12/15 10:53:38;;;;;;;33.40;23.67;;;;;;;;;;5040152;28;20039;-50
2021/12/15 10:56:12;;;;;;;31.85;21.70;;;;;;;;;;5099291;28;20059;-53
2021/12/15 10:58:48;;;;;;;35.90;22.27;;;;;;;;;;5086638;28;20106;-49
2021/12/15 11:01:45;;;;;;;38.15;24.33;;;;;;;;;;5097987;27;20381;-54
2021/12/15 11:04:21;;;;;;;40.80;25.42;;;;;;;;;;5094661;27;20031;-50
2021/12/15 11:07:14;;;;;;;40.05;25.08;;;;;;;;;;5093865;28;21113;-50
2021/12/15 11:10:05;;;;;;;40.78;24.75;;;;;;;;;;5103575;27;20107;-54
2021/12/15 11:12:35;;;;;;;46.60;23.58;;;;;;;;;;5040757;28;20094;-52
2021/12/15 11:15:14;;;;;;;34.40;23.42;;;;;;;;;;5044489;28;20048;-48
2021/12/15 11:17:45;;;;;;;46.40;25.85;;;;;;;;;;5043477;28;20083;-53
2021/12/15 11:20:30;;;;;;;38.22;24.42;;;;;;;;;;5043817;28;20064;-51
2021/12/15 11:23:02;;;;;;;38.15;24.70;;;;;;;;;;5040095;28;20579;-49
2021/12/15 11:25:45;;;;;;;38.75;23.05;;;;;;;;;;5042610;28;20129;-54
2021/12/15 11:28:20;;;;;;;34.83;21.40;;;;;;;;;;5038015;28;20033;-52
2021/12/15 11:30:57;;;;;;;34.88;21.23;;;;;;;;;;5035422;28;20032;-48
2021/12/15 11:33:25;;;;;;;36.72;21.70;;;;;;;;;;5037074;28;20036;-52
2021/12/15 11:35:53;;;;;;;30.75;21.50;;;;;;;;;;5045671;28;20102;-48
2021/12/15 11:38:26;;;;;;;35.33;21.85;;;;;;;;;;5039562;28;20493;-47
2021/12/15 11:41:09;;;;;;;36.42;22.77;;;;;;;;;;5044217;28;20417;-48
2021/12/15 11:43:49;;;;;;;39.55;22.63;;;;;;;;;;5039858;28;20045;-51
2021/12/15 11:46:29;;;;;;;44.83;22.45;;;;;;;;;;5043134;28;20539;-50
2021/12/15 11:49:13;;;;;;;37.22;22.25;;;;;;;;;;5036172;28;20066;-50
2021/12/15 11:51:41;;;;;;;30.05;21.35;;;;;;;;;;5094890;28;20038;-52
2021/12/15 11:54:25;;;;;;;32.72;20.58;;;;;;;;;;5097596;28;20419;-47
2021/12/15 11:57:05;;;;;;;38.33;20.17;;;;;;;;;;5091989;28;20039;-49
2021/12/15 11:59:32;;;;;;;33.47;21.33;;;;;;;;;;5094107;28;20032;-51
2021/12/15 12:02:03;;;;;;;36.83;20.92;;;;;;;;;;5099011;28;20213;-47
2021/12/15 12:04:34;;;;;;;36.17;21.35;;;;;;;;;;5097077;28;20481;-53
2021/12/15 12:07:15;;;;;;;36.40;19.90;;;;;;;;;;5081308;28;20069;-48
2021/12/15 12:09:44;;;;;;;35.50;19.92;;;;;;;;;;5094877;28;20035;-52
2021/12/15 12:12:11;;;;;;;39.42;20.52;;;;;;;;;;5093286;28;20035;-49
2021/12/15 12:14:41;;;;;;;36.25;19.35;;;;;;;;;;5096722;28;20040;-55
2021/12/15 12:17:13;;;;;;;34.83;19.92;;;;;;;;;;5100305;28;20511;-47
2021/12/15 12:20:00;;;;;;;32.93;19.60;;;;;;;;;;5092944;28;20154;-47
2021/12/15 12:22:29;;;;;;;31.33;18.55;;;;;;;;;;5097467;28;20073;-47
2021/12/15 12:24:58;;;;;;;35.15;20.40;;;;;;;;;;5094525;28;20044;-49
2021/12/15 12:27:28;;;;;;;34.92;20.27;;;;;;;;;;5094849;27;20024;-45
2021/12/15 12:29:56;;;;;;;43.95;21.40;;;;;;;;;;5101134;28;20469;-47
2021/12/15 12:32:22;;;;;;;31.77;19.98;;;;;;;;;;5098672;28;20023;-50
2021/12/15 12:34:50;;;;;;;37.15;21.20;;;;;;;;;;5099391;27;20039;-46
2021/12/15 12:37:17;;;;;;;36.03;21.27;;;;;;;;;;5105678;28;20024;-47
2021/12/15 12:39:45;;;;;;;38.65;22.27;;;;;;;;;;5099283;28;20063;-51
2021/12/15 12:42:30;;;;;;;39.15;21.48;;;;;;;;;;5097716;28;20081;-47
2021/12/15 12:45:14;;;;;;;50.20;23.52;;;;;;;;;;5092889;28;20032;-50
2021/12/15 12:47:56;;;;;;;41.25;22.33;;;;;;;;;;5098302;28;20043;-49
2021/12/15 12:57:59;;;;;;;31.20;20.38;;;;;;;;;;5105779;28;20032;-45
2021/12/15 13:01:36;;;;;;;41.95;23.23;;;;;;;;;;5096943;27;20116;-46
2021/12/15 13:04:10;;;;;;;40.22;22.48;;;;;;;;;;5093785;28;20099;-50
2021/12/15 13:06:43;;;;;;;47.35;24.48;;;;;;;;;;5108399;28;20032;-54
2021/12/15 13:09:16;;;;;;;38.85;22.48;;;;;;;;;;5102220;27;20068;-52
2021/12/15 13:11:47;;;;;;;50.10;24.02;;;;;;;;;;5095113;27;20085;-51
2021/12/15 13:14:34;;;;;;;52.30;27.52;;;;;;;;;;5103020;28;20498;-51
2021/12/15 13:17:07;;;;;;;69.07;29.33;;;;;;;;;;5097862;28;20664;-50
2021/12/15 13:19:42;;;;;;;65.18;30.15;;;;;;;;;;5102166;27;20487;-50
2021/12/15 13:31:03;;;;;;;43.67;26.92;;;;;;;;;;5096568;28;20119;-52
2021/12/15 13:33:35;;;;;;;37.40;21.83;;;;;;;;;;5098231;27;20119;-46
2021/12/15 13:36:19;;;;;;;41.00;22.50;;;;;;;;;;5093111;28;20365;-50
2021/12/15 13:39:02;;;;;;;38.47;21.10;;;;;;;;;;5097382;28;20040;-46
2021/12/15 13:42:14;;;;;;;34.58;20.40;;;;;;;;;;5079361;28;20052;-51
2021/12/15 13:44:45;;;;;;;36.92;20.25;;;;;;;;;;5093623;28;20032;-49
2021/12/15 13:47:13;;;;;;;38.67;21.48;;;;;;;;;;5088002;28;20396;-47
2021/12/15 13:49:43;;;;;;;35.47;21.52;;;;;;;;;;5099401;28;20027;-49
2021/12/15 13:52:09;;;;;;;45.15;23.23;;;;;;;;;;5096574;28;20032;-50
2021/12/15 13:54:35;;;;;;;38.88;21.30;;;;;;;;;;5098617;28;20042;-49
2021/12/15 13:57:12;;;;;;;44.05;20.05;;;;;;;;;;5103748;27;20028;-54
2021/12/15 13:59:58;;;;;;;32.13;18.13;;;;;;;;;;5097402;28;20027;-52
2021/12/15 14:02:29;;;;;;;26.20;17.92;;;;;;;;;;5097613;28;20114;-51
2021/12/15 14:04:57;;;;;;;43.83;19.60;;;;;;;;;;5096487;28;20526;-51
2021/12/15 14:07:46;;;;;;;41.00;17.27;;;;;;;;;;5078622;28;20047;-49
2021/12/15 14:10:17;;;;;;;47.10;17.02;;;;;;;;;;5104686;28;20034;-50
2021/12/15 14:12:49;;;;;;;42.25;18.10;;;;;;;;;;5095453;28;20097;-49
2021/12/15 14:15:26;;;;;;;48.13;18.17;;;;;;;;;;5094179;27;20035;-54
2021/12/15 14:18:31;;;;;;;28.88;16.42;;;;;;;;;;5085550;28;20032;-51
2021/12/15 14:21:09;;;;;;;38.50;19.65;;;;;;;;;;5096982;28;20043;-52
2021/12/15 14:23:50;;;;;;;37.42;18.67;;;;;;;;;;5104652;27;20088;-49
2021/12/15 14:26:20;;;;;;;33.97;18.98;;;;;;;;;;5104274;27;20128;-54
2021/12/15 14:28:56;;;;;;;37.10;18.13;;;;;;;;;;5099431;27;20028;-51
2021/12/15 14:31:32;;;;;;;42.50;19.95;;;;;;;;;;5097488;27;20119;-46
2021/12/15 14:34:20;;;;;;;48.55;18.73;;;;;;;;;;5103031;28;20020;-50
2021/12/15 14:36:57;;;;;;;50.08;18.60;;;;;;;;;;5118416;27;20471;-45
2021/12/15 14:39:26;;;;;;;35.05;17.15;;;;;;;;;;5095575;28;20534;-51
2021/12/15 14:42:13;;;;;;;37.40;17.88;;;;;;;;;;5101300;27;20042;-46
2021/12/15 14:44:46;;;;;;;43.45;16.60;;;;;;;;;;5090785;28;20032;-48
2021/12/15 14:47:23;;;;;;;35.97;17.15;;;;;;;;;;5100094;27;20032;-50
2021/12/15 14:50:05;;;;;;;41.63;14.95;;;;;;;;;;5100356;28;20114;-46
2021/12/15 14:52:36;;;;;;;28.23;14.25;;;;;;;;;;5103378;27;20358;-48
2021/12/15 14:55:08;;;;;;;31.70;13.35;;;;;;;;;;5095849;28;20035;-46
2021/12/15 14:57:35;;;;;;;26.02;13.93;;;;;;;;;;5100908;27;20059;-46
2021/12/15 15:00:08;;;;;;;25.95;14.23;;;;;;;;;;5097116;28;20076;-49
2021/12/15 15:02:44;;;;;;;21.08;12.52;;;;;;;;;;5095404;28;20019;-47
2021/12/15 15:05:22;;;;;;;23.25;13.82;;;;;;;;;;5097043;28;20042;-46
2021/12/15 15:07:53;;;;;;;21.13;13.38;;;;;;;;;;5097324;27;20043;-47
2021/12/15 15:10:23;;;;;;;38.53;14.40;;;;;;;;;;5096081;28;20388;-48
2021/12/15 15:12:50;;;;;;;22.95;15.15;;;;;;;;;;5097042;28;20484;-51
2021/12/15 15:15:26;;;;;;;23.67;15.80;;;;;;;;;;5083112;28;20042;-48
2021/12/15 15:18:01;;;;;;;25.75;15.15;;;;;;;;;;5103689;27;20035;-46
2021/12/15 15:20:34;;;;;;;23.42;13.45;;;;;;;;;;5097232;28;20028;-46
2021/12/15 15:23:06;;;;;;;29.83;13.90;;;;;;;;;;5097081;28;20020;-53
2021/12/15 15:25:35;;;;;;;31.45;14.30;;;;;;;;;;5092951;28;20044;-49
2021/12/15 15:28:06;;;;;;;26.85;14.73;;;;;;;;;;5108643;27;20039;-50
2021/12/15 15:30:36;;;;;;;33.20;16.77;;;;;;;;;;5099685;28;20039;-52
2021/12/15 15:33:12;;;;;;;37.05;19.10;;;;;;;;;;5099711;28;20030;-52
2021/12/15 15:35:45;;;;;;;43.35;21.85;;;;;;;;;;5078530;28;20032;-48
2021/12/15 15:38:21;;;;;;;53.53;24.83;;;;;;;;;;5090664;28;20036;-54
2021/12/15 15:40:54;;;;;;;44.80;22.35;;;;;;;;;;5076491;28;20138;-51
2021/12/15 15:43:32;;;;;;;40.38;19.95;;;;;;;;;;5090960;28;20024;-52
2021/12/15 15:46:03;;;;;;;42.92;19.20;;;;;;;;;;5099275;28;20431;-52
2021/12/15 15:48:32;;;;;;;41.40;21.33;;;;;;;;;;5086005;28;20028;-48
2021/12/15 15:51:03;;;;;;;41.10;21.17;;;;;;;;;;5095570;28;20028;-50
2021/12/15 15:53:30;;;;;;;43.65;22.65;;;;;;;;;;5104955;28;20032;-51
2021/12/15 15:56:13;;;;;;;39.35;24.15;;;;;;;;;;5096468;28;20051;-48
2021/12/15 15:58:43;;;;;;;57.92;26.55;;;;;;;;;;5107125;27;20388;-51
2021/12/15 16:01:10;;;;;;;46.70;25.38;;;;;;;;;;5102050;28;20034;-48
2021/12/15 16:03:36;;;;;;;53.67;26.13;;;;;;;;;;5088500;28;20036;-50
2021/12/15 16:06:06;;;;;;;44.88;26.70;;;;;;;;;;5083331;28;20396;-47
2021/12/15 16:08:35;;;;;;;41.97;26.30;;;;;;;;;;5087850;28;20040;-51
2021/12/15 16:11:07;;;;;;;46.97;26.30;;;;;;;;;;5102171;27;20070;-49
2021/12/15 16:13:40;;;;;;;48.90;28.50;;;;;;;;;;5103428;28;20073;-52
2021/12/15 16:16:15;;;;;;;55.72;31.52;;;;;;;;;;5101253;28;20532;-50